Time;durP1;ratioP1;P1;durP2;ratioP2;P2;SDS_P1;SDS_P2;PMS_P1;PMS_P2;Temp;Humidity;BMP_temperature;BMP_pressure;BME280_temperature;BME280_humidity;BME280_pressure;Samples;Min_cycle;Max_cycle;Signal;HPM_P1;HPM_P2
2023/07/09 00:00:19;;;;;;;12.43;7.50;;;;;;;17.68;100.00;100679.34;5090620;28;20028;-76
2023/07/09 00:02:45;;;;;;;11.65;6.95;;;;;;;17.71;100.00;100689.81;5092107;28;20051;-76
2023/07/09 00:05:14;;;;;;;15.63;7.68;;;;;;;17.67;100.00;100686.44;5090689;28;20117;-77
2023/07/09 00:07:40;;;;;;;10.32;6.32;;;;;;;17.62;100.00;100693.03;5095123;28;20153;-77
2023/07/09 00:10:18;;;;;;;13.15;6.85;;;;;;;17.62;100.00;100695.94;5095521;28;20040;-78
2023/07/09 00:12:51;;;;;;;12.60;6.53;;;;;;;17.59;100.00;100694.09;5095849;28;20031;-75
2023/07/09 00:15:18;;;;;;;12.50;6.43;;;;;;;17.56;100.00;100694.38;5096118;28;20053;-79
2023/07/09 00:17:43;;;;;;;11.07;7.15;;;;;;;17.56;100.00;100700.94;5095711;28;20169;-77
2023/07/09 00:20:17;;;;;;;10.60;7.20;;;;;;;17.54;100.00;100705.66;5095991;28;20470;-77
2023/07/09 00:22:51;;;;;;;14.35;8.90;;;;;;;17.53;100.00;100707.00;5095630;28;20158;-77
2023/07/09 00:25:19;;;;;;;21.02;9.00;;;;;;;17.51;100.00;100709.63;5095787;28;20526;-75
2023/07/09 00:27:51;;;;;;;13.40;9.60;;;;;;;17.47;100.00;100706.25;5095955;28;20337;-78
2023/07/09 00:30:32;;;;;;;17.15;11.50;;;;;;;17.43;100.00;100712.28;5095510;28;20032;-77
2023/07/09 00:32:57;;;;;;;15.30;10.17;;;;;;;17.41;100.00;100703.34;5096775;28;20177;-77
2023/07/09 00:35:25;;;;;;;17.10;9.90;;;;;;;17.36;100.00;100704.16;5094895;28;20749;-76
2023/07/09 00:37:51;;;;;;;18.38;9.45;;;;;;;17.35;100.00;100699.69;5096616;28;20032;-77
2023/07/09 00:40:20;;;;;;;17.45;10.85;;;;;;;17.33;100.00;100702.31;5096719;28;20043;-76
2023/07/09 00:42:49;;;;;;;19.05;10.90;;;;;;;17.29;100.00;100705.47;5096415;28;20024;-76
2023/07/09 00:45:26;;;;;;;18.77;10.10;;;;;;;17.27;100.00;100705.22;5095183;28;20042;-77
2023/07/09 00:48:06;;;;;;;14.40;9.75;;;;;;;17.10;100.00;100677.69;5096545;28;20081;-76
2023/07/09 00:50:50;;;;;;;14.95;10.18;;;;;;;17.26;100.00;100711.53;5095157;28;20032;-77
2023/07/09 00:53:24;;;;;;;13.50;9.05;;;;;;;17.24;100.00;100708.41;5096322;28;20028;-77
2023/07/09 00:56:06;;;;;;;14.80;9.02;;;;;;;17.22;100.00;100706.03;5094851;28;20043;-75
2023/07/09 00:58:47;;;;;;;19.10;10.15;;;;;;;17.23;100.00;100712.59;5094874;28;20032;-77
2023/07/09 01:01:30;;;;;;;15.40;10.68;;;;;;;17.20;100.00;100710.75;5094962;28;20111;-77
2023/07/09 01:03:59;;;;;;;20.23;9.80;;;;;;;17.18;100.00;100716.28;5096328;28;20066;-75
2023/07/09 01:06:55;;;;;;;14.90;9.73;;;;;;;17.17;100.00;100706.84;5078172;28;20055;-77
2023/07/09 01:09:30;;;;;;;23.55;10.25;;;;;;;17.15;100.00;100712.34;5086021;28;20062;-76
2023/07/09 01:11:56;;;;;;;14.20;10.82;;;;;;;17.12;100.00;100713.41;5095956;28;20028;-79
2023/07/09 01:14:24;;;;;;;18.83;10.50;;;;;;;17.07;100.00;100714.22;5096116;28;20056;-77
2023/07/09 01:17:00;;;;;;;13.85;9.35;;;;;;;17.07;100.00;100713.44;5095847;28;20020;-78
2023/07/09 01:19:29;;;;;;;14.32;9.85;;;;;;;17.01;100.00;100704.78;5093741;28;20036;-77
2023/07/09 01:21:59;;;;;;;19.40;10.50;;;;;;;16.98;100.00;100714.50;5096184;28;20065;-77
2023/07/09 01:24:51;;;;;;;16.02;10.68;;;;;;;16.94;100.00;100711.84;5077843;28;20047;-77
2023/07/09 01:27:21;;;;;;;14.50;9.50;;;;;;;16.89;100.00;100709.00;5095747;28;20020;-76
2023/07/09 01:29:48;;;;;;;13.65;9.45;;;;;;;16.85;100.00;100720.81;5077704;28;20024;-76
2023/07/09 01:32:22;;;;;;;12.88;9.40;;;;;;;16.82;100.00;100716.09;5095243;28;20028;-76
2023/07/09 01:34:52;;;;;;;16.02;9.35;;;;;;;16.76;100.00;100715.31;5095032;28;20024;-77
2023/07/09 01:37:24;;;;;;;16.00;9.55;;;;;;;16.77;100.00;100718.97;5109665;28;20062;-76
2023/07/09 01:39:51;;;;;;;11.77;9.33;;;;;;;16.73;100.00;100719.25;5093093;28;20376;-78
2023/07/09 01:42:21;;;;;;;13.00;9.07;;;;;;;16.55;100.00;100697.47;5093081;28;20681;-76
2023/07/09 01:44:54;;;;;;;14.13;9.07;;;;;;;16.65;100.00;100717.44;5093549;28;20040;-77
2023/07/09 01:47:23;;;;;;;15.63;9.25;;;;;;;16.60;100.00;100716.09;5094026;28;20016;-76
2023/07/09 01:49:56;;;;;;;13.60;9.07;;;;;;;16.58;100.00;100712.19;5093224;28;20028;-78
2023/07/09 01:52:30;;;;;;;12.93;8.40;;;;;;;16.55;100.00;100716.88;5098867;28;20119;-77
2023/07/09 01:54:58;;;;;;;11.43;9.00;;;;;;;16.51;100.00;100719.22;5099971;28;20032;-77
2023/07/09 01:57:34;;;;;;;15.07;9.07;;;;;;;16.46;100.00;100715.03;5101491;28;20483;-77
2023/07/09 02:00:19;;;;;;;18.48;9.48;;;;;;;16.42;100.00;100708.75;5097682;28;20465;-77
2023/07/09 02:02:46;;;;;;;13.82;9.38;;;;;;;16.31;100.00;100707.94;5092709;28;20055;-77
2023/07/09 02:05:14;;;;;;;12.73;9.25;;;;;;;16.34;100.00;100715.56;5092255;28;20266;-78
2023/07/09 02:07:40;;;;;;;15.25;9.45;;;;;;;16.31;100.00;100713.69;5093379;28;20036;-76
2023/07/09 02:10:08;;;;;;;14.00;9.32;;;;;;;16.30;100.00;100715.03;5093150;28;20047;-76
2023/07/09 02:12:44;;;;;;;13.80;8.98;;;;;;;16.26;100.00;100717.38;5075287;28;20085;-79
2023/07/09 02:15:10;;;;;;;12.27;9.10;;;;;;;16.23;100.00;100722.09;5092305;28;20039;-77
2023/07/09 02:17:36;;;;;;;11.52;8.48;;;;;;;16.23;100.00;100716.34;5092558;28;20024;-76
2023/07/09 02:20:04;;;;;;;11.77;9.63;;;;;;;16.22;100.00;100720.53;5094949;28;20044;-77
2023/07/09 02:22:29;;;;;;;12.88;8.93;;;;;;;16.21;100.00;100718.16;5093461;28;20027;-76
2023/07/09 02:24:55;;;;;;;14.75;9.40;;;;;;;16.18;100.00;100717.13;5093468;28;20046;-75
2023/07/09 02:27:21;;;;;;;13.80;9.43;;;;;;;16.17;100.00;100721.28;5094760;28;20181;-77
2023/07/09 02:29:49;;;;;;;11.85;8.82;;;;;;;16.16;100.00;100730.47;5094545;28;20026;-76
2023/07/09 02:32:20;;;;;;;17.73;9.65;;;;;;;16.11;100.00;100727.06;5093749;28;20047;-76
2023/07/09 02:34:52;;;;;;;18.02;9.27;;;;;;;16.11;100.00;100729.94;5093258;28;20027;-76
2023/07/09 02:37:20;;;;;;;13.70;9.80;;;;;;;16.05;100.00;100739.91;5094622;28;20074;-77
2023/07/09 02:39:45;;;;;;;17.42;9.43;;;;;;;15.94;100.00;100725.47;5094378;28;20040;-75
2023/07/09 02:42:13;;;;;;;12.95;8.50;;;;;;;15.98;100.00;100746.16;5093049;28;20034;-76
2023/07/09 02:44:43;;;;;;;12.68;9.43;;;;;;;15.96;100.00;100751.66;5092889;28;20152;-77
2023/07/09 02:47:10;;;;;;;13.20;9.40;;;;;;;15.91;100.00;100744.56;5093293;28;20031;-75
2023/07/09 02:49:36;;;;;;;13.80;8.65;;;;;;;15.86;100.00;100741.69;5092916;28;20040;-77
2023/07/09 02:52:10;;;;;;;16.02;9.50;;;;;;;15.84;100.00;100745.09;5075873;28;20028;-76
2023/07/09 02:54:37;;;;;;;14.93;9.48;;;;;;;15.82;100.00;100744.81;5094332;28;20032;-77
2023/07/09 02:57:04;;;;;;;16.10;9.80;;;;;;;15.82;100.00;100747.69;5093949;28;20050;-75
2023/07/09 02:59:30;;;;;;;18.27;10.77;;;;;;;15.81;100.00;100751.88;5094094;28;20413;-76
2023/07/09 03:01:57;;;;;;;17.60;9.73;;;;;;;15.82;100.00;100744.81;5092829;28;20436;-77
2023/07/09 03:04:23;;;;;;;15.80;10.02;;;;;;;15.82;100.00;100744.00;5093705;28;20469;-76
2023/07/09 03:06:57;;;;;;;13.85;10.25;;;;;;;15.76;100.00;100754.75;5075800;28;20131;-78
2023/07/09 03:09:34;;;;;;;13.23;9.10;;;;;;;15.85;100.00;100758.19;5094032;28;20036;-76
2023/07/09 03:12:00;;;;;;;14.18;10.05;;;;;;;15.90;100.00;100757.44;5092831;28;20028;-76
2023/07/09 03:14:27;;;;;;;17.27;10.07;;;;;;;15.91;100.00;100749.56;5092502;28;20499;-76
2023/07/09 03:16:55;;;;;;;14.45;9.43;;;;;;;15.85;100.00;100743.78;5094054;28;20028;-77
2023/07/09 03:19:22;;;;;;;14.50;9.93;;;;;;;15.99;100.00;100757.19;5093653;28;20035;-77
2023/07/09 03:21:47;;;;;;;14.60;9.05;;;;;;;16.01;100.00;100757.44;5092486;28;20469;-75
2023/07/09 03:24:27;;;;;;;12.20;8.90;;;;;;;16.07;100.00;100755.34;5075466;28;20153;-76
2023/07/09 03:26:54;;;;;;;15.02;8.10;;;;;;;16.14;100.00;100762.72;5092368;28;20377;-76
2023/07/09 03:29:19;;;;;;;13.75;8.73;;;;;;;16.25;100.00;100767.72;5092303;28;20499;-76
2023/07/09 03:31:45;;;;;;;12.73;8.75;;;;;;;16.35;100.00;100757.53;5058766;28;20115;-76
2023/07/09 03:34:13;;;;;;;16.38;8.85;;;;;;;16.46;100.00;100757.50;5092299;28;20046;-78
2023/07/09 03:36:38;;;;;;;14.38;9.07;;;;;;;16.48;100.00;100761.47;5093690;28;20020;-76
2023/07/09 03:39:06;;;;;;;12.68;8.80;;;;;;;16.53;100.00;100762.78;5093934;28;20077;-77
2023/07/09 03:41:35;;;;;;;10.40;8.88;;;;;;;16.57;100.00;100771.19;5094722;28;20103;-76
2023/07/09 03:44:15;;;;;;;13.05;8.30;;;;;;;16.64;100.00;100762.81;5096731;28;20050;-76
2023/07/09 03:46:41;;;;;;;13.80;9.27;;;;;;;16.72;100.00;100758.09;5097524;28;20024;-77
2023/07/09 03:49:06;;;;;;;15.55;9.20;;;;;;;16.83;100.00;100758.09;5097314;28;20484;-77
2023/07/09 03:51:32;;;;;;;13.13;9.15;;;;;;;16.96;100.00;100758.31;5098009;28;20358;-77
2023/07/09 03:53:57;;;;;;;12.93;8.93;;;;;;;17.09;100.00;100762.78;5096697;28;20055;-76
2023/07/09 03:56:24;;;;;;;13.35;8.80;;;;;;;17.19;100.00;100752.53;5078120;28;20040;-75
2023/07/09 03:58:50;;;;;;;12.18;9.50;;;;;;;17.30;100.00;100756.16;5095545;28;20047;-77
2023/07/09 04:01:16;;;;;;;12.60;8.82;;;;;;;17.38;100.00;100759.31;5097432;28;20431;-77
2023/07/09 04:03:43;;;;;;;13.25;8.68;;;;;;;17.47;100.00;100761.94;5079452;28;20362;-77
2023/07/09 04:06:08;;;;;;;15.38;10.13;;;;;;;17.54;100.00;100764.25;5080023;28;20040;-77
2023/07/09 04:08:33;;;;;;;16.73;9.70;;;;;;;17.54;100.00;100760.56;5097098;28;20031;-78
2023/07/09 04:11:02;;;;;;;14.30;8.70;;;;;;;17.54;100.00;100764.25;5095852;28;20069;-78
2023/07/09 04:13:28;;;;;;;10.50;8.80;;;;;;;17.59;100.00;100772.13;5079106;28;20043;-77
2023/07/09 04:15:55;;;;;;;14.75;9.43;;;;;;;17.63;100.00;100763.19;5078989;28;20040;-78
2023/07/09 04:18:22;;;;;;;9.98;8.85;;;;;;;17.67;100.00;100761.59;5096838;28;20039;-78
2023/07/09 04:20:49;;;;;;;18.23;9.63;;;;;;;17.70;100.00;100766.31;5097264;28;20046;-76
2023/07/09 04:23:17;;;;;;;15.88;8.77;;;;;;;17.77;100.00;100776.53;5095731;28;20465;-76
2023/07/09 04:25:43;;;;;;;12.27;8.70;;;;;;;17.85;100.00;100783.31;5095846;28;20035;-77
2023/07/09 04:28:09;;;;;;;15.43;9.65;;;;;;;17.90;100.00;100781.72;5096976;28;20062;-77
2023/07/09 04:30:36;;;;;;;14.95;9.30;;;;;;;17.95;100.00;100772.22;5095633;28;20473;-77
2023/07/09 04:33:03;;;;;;;12.88;9.18;;;;;;;18.02;100.00;100769.59;5092309;28;20071;-77
2023/07/09 04:35:29;;;;;;;15.02;9.07;;;;;;;18.13;100.00;100766.59;5095546;28;20040;-76
2023/07/09 04:37:55;;;;;;;15.65;9.48;;;;;;;18.26;100.00;100774.69;5096694;28;20477;-76
2023/07/09 04:40:22;;;;;;;15.82;8.32;;;;;;;18.36;100.00;100781.75;5093852;28;20496;-76
2023/07/09 04:42:50;;;;;;;14.52;9.27;;;;;;;18.46;100.00;100785.91;5096429;28;20477;-77
2023/07/09 04:45:15;;;;;;;15.25;8.73;;;;;;;18.56;100.00;100795.03;5096504;28;20024;-77
2023/07/09 04:47:41;;;;;;;14.32;8.60;;;;;;;18.61;100.00;100792.13;5096007;28;20043;-77
2023/07/09 04:50:08;;;;;;;12.13;8.43;;;;;;;18.70;100.00;100799.69;5092893;28;20078;-77
2023/07/09 04:52:35;;;;;;;10.15;8.10;;;;;;;18.76;100.00;100785.94;5094143;28;20024;-76
2023/07/09 04:55:01;;;;;;;11.00;8.43;;;;;;;18.84;100.00;100806.41;5095034;28;20440;-78
2023/07/09 04:57:27;;;;;;;9.70;8.27;;;;;;;18.91;100.00;100797.94;5093747;28;20032;-77
2023/07/09 04:59:53;;;;;;;14.10;8.63;;;;;;;18.98;100.00;100806.00;5076919;28;20032;-76
2023/07/09 05:02:18;;;;;;;14.27;8.82;;;;;;;19.07;100.00;100796.19;5093771;28;20396;-77
2023/07/09 05:04:45;;;;;;;14.93;8.98;;;;;;;19.13;100.00;100802.72;5093793;28;20036;-77
2023/07/09 05:07:11;;;;;;;13.75;8.10;;;;;;;19.24;100.00;100801.88;5095811;28;20050;-78
2023/07/09 05:09:37;;;;;;;11.90;8.50;;;;;;;19.34;100.00;100800.97;5094257;28;20114;-77
2023/07/09 05:12:05;;;;;;;12.18;7.70;;;;;;;19.45;100.00;100808.78;5096291;28;20036;-77
2023/07/09 05:14:32;;;;;;;10.75;8.20;;;;;;;19.56;100.00;100802.06;5077615;28;20020;-78
2023/07/09 05:16:58;;;;;;;12.50;8.20;;;;;;;19.63;100.00;100801.44;5094870;28;20130;-78
2023/07/09 05:19:24;;;;;;;12.80;8.07;;;;;;;19.69;100.00;100802.16;5096161;28;20020;-77
2023/07/09 05:21:52;;;;;;;12.35;8.30;;;;;;;19.74;100.00;100805.00;5092248;28;20081;-79
2023/07/09 05:24:18;;;;;;;11.75;8.63;;;;;;;19.79;100.00;100800.47;5093180;28;20039;-78
2023/07/09 05:26:45;;;;;;;14.55;8.43;;;;;;;19.83;100.00;100800.94;5095850;28;20024;-77
2023/07/09 05:29:10;;;;;;;11.68;7.65;;;;;;;19.89;100.00;100793.75;5079285;28;20020;-76
2023/07/09 05:31:36;;;;;;;11.55;7.70;;;;;;;20.01;100.00;100811.81;5115873;28;20038;-76
2023/07/09 05:34:01;;;;;;;16.13;8.50;;;;;;;20.12;100.00;100810.88;5115688;28;20027;-76
2023/07/09 05:36:28;;;;;;;11.85;7.40;;;;;;;20.15;100.00;100815.59;5116234;28;20027;-77
2023/07/09 05:38:56;;;;;;;10.73;7.53;;;;;;;20.26;100.00;100813.31;5114644;28;20035;-77
2023/07/09 05:41:21;;;;;;;14.45;7.88;;;;;;;20.30;100.00;100810.13;5114666;28;20106;-76
2023/07/09 05:43:47;;;;;;;11.05;7.85;;;;;;;20.33;100.00;100814.81;5114378;28;20487;-77
2023/07/09 05:46:14;;;;;;;13.43;8.10;;;;;;;20.45;100.00;100810.41;5116081;28;20524;-77
2023/07/09 05:48:41;;;;;;;13.88;8.82;;;;;;;20.56;100.00;100803.66;5114497;28;20499;-78
2023/07/09 05:51:07;;;;;;;11.52;8.00;;;;;;;20.70;100.00;100803.19;5097708;28;20015;-81
2023/07/09 05:53:34;;;;;;;13.27;6.47;;;;;;;20.87;100.00;100802.13;5115675;27;20078;-82
2023/07/09 05:55:59;;;;;;;14.02;7.68;;;;;;;21.02;100.00;100790.78;5115048;28;20034;-81
2023/07/09 05:58:26;;;;;;;14.25;7.45;;;;;;;21.30;100.00;100801.91;5117158;28;20384;-86
2023/07/09 06:00:53;;;;;;;11.55;6.97;;;;;;;22.06;100.00;100798.81;5114537;28;20028;-81
2023/07/09 06:03:24;;;;;;;9.30;6.97;;;;;;;23.42;100.00;100795.00;5114667;28;20063;-83
2023/07/09 06:05:50;;;;;;;9.80;6.88;;;;;;;25.00;100.00;100797.13;5115341;28;20034;-78
2023/07/09 06:08:16;;;;;;;9.32;6.00;;;;;;;26.66;93.68;100801.09;5097258;28;20036;-78
2023/07/09 06:10:58;;;;;;;10.63;6.32;;;;;;;28.29;82.45;100802.22;5113902;28;20051;-84
2023/07/09 06:13:26;;;;;;;10.18;7.22;;;;;;;29.82;68.87;100819.91;5115820;28;20071;-84
2023/07/09 06:15:54;;;;;;;9.05;6.63;;;;;;;30.97;59.45;100822.03;5132691;28;20096;-80
2023/07/09 06:18:21;;;;;;;9.88;5.95;;;;;;;31.60;46.59;100818.50;5133451;28;20028;-78
2023/07/09 06:20:55;;;;;;;8.50;5.72;;;;;;;32.61;46.43;100828.50;5137412;28;20042;-80
2023/07/09 06:23:20;;;;;;;7.57;5.65;;;;;;;33.56;42.75;100824.31;5101357;28;20031;-83
2023/07/09 06:25:47;;;;;;;9.95;5.97;;;;;;;34.28;42.58;100836.97;5117387;28;20100;-82
2023/07/09 06:28:18;;;;;;;7.88;5.88;;;;;;;35.09;37.50;100838.81;5116269;28;20110;-79
2023/07/09 06:30:45;;;;;;;7.13;5.43;;;;;;;35.72;37.36;100824.47;5115125;28;20444;-82
2023/07/09 06:33:20;;;;;;;9.13;6.00;;;;;;;36.54;34.63;100821.34;5097846;28;20036;-82
2023/07/09 06:35:50;;;;;;;9.52;5.97;;;;;;;37.30;32.42;100827.38;5113672;28;20043;-83
2023/07/09 06:38:16;;;;;;;11.25;6.38;;;;;;;38.19;31.77;100824.78;5114608;28;20031;-82
2023/07/09 06:40:50;;;;;;;10.13;5.50;;;;;;;39.04;29.29;100826.19;5097776;28;20031;-81
2023/07/09 06:43:16;;;;;;;6.50;5.78;;;;;;;39.01;27.40;100820.78;5115092;28;20052;-79
2023/07/09 06:45:53;;;;;;;7.63;5.45;;;;;;;39.29;26.01;100813.75;5113834;28;20070;-81
2023/07/09 06:48:20;;;;;;;8.68;5.70;;;;;;;39.65;26.34;100820.38;5113514;28;20024;-79
2023/07/09 06:50:46;;;;;;;6.78;5.20;;;;;;;38.95;25.86;100821.31;5114039;28;20084;-80
2023/07/09 06:53:13;;;;;;;7.35;5.53;;;;;;;39.03;27.42;100820.88;5114543;28;20023;-81
2023/07/09 06:55:48;;;;;;;7.05;5.32;;;;;;;38.81;26.17;100817.72;5114932;28;20502;-81
2023/07/09 06:58:16;;;;;;;7.53;5.30;;;;;;;39.59;26.98;100825.38;5114598;28;20379;-81
2023/07/09 07:00:41;;;;;;;6.57;5.40;;;;;;;39.28;25.17;100823.41;5113284;28;20036;-79
2023/07/09 07:03:16;;;;;;;6.28;5.25;;;;;;;38.82;26.15;100826.03;5114526;28;20020;-78
2023/07/09 07:05:48;;;;;;;6.05;5.15;;;;;;;39.45;26.33;100824.84;5114272;28;20457;-78
2023/07/09 07:08:17;;;;;;;9.00;5.00;;;;;;;39.74;24.26;100818.47;5113380;28;20041;-79
2023/07/09 07:10:47;;;;;;;8.70;5.13;;;;;;;38.65;25.16;100814.88;5114094;28;20063;-78
2023/07/09 07:13:14;;;;;;;7.60;5.80;;;;;;;38.34;27.06;100818.75;5096088;28;20070;-75
2023/07/09 07:15:41;;;;;;;7.97;5.28;;;;;;;38.22;26.99;100824.19;5113714;28;20051;-76
2023/07/09 07:18:07;;;;;;;7.45;5.32;;;;;;;39.27;28.34;100824.84;5112578;28;20032;-74
2023/07/09 07:20:36;;;;;;;7.55;4.70;;;;;;;40.33;26.00;100805.63;5113995;28;20080;-74
2023/07/09 07:23:03;;;;;;;9.10;4.65;;;;;;;40.98;25.08;100809.31;5114182;28;20024;-76
2023/07/09 07:25:30;;;;;;;6.60;4.80;;;;;;;42.05;24.65;100796.03;5112775;28;20043;-75
2023/07/09 07:27:56;;;;;;;5.95;4.53;;;;;;;42.84;24.37;100798.09;5113817;28;20076;-77
2023/07/09 07:30:24;;;;;;;7.88;5.10;;;;;;;43.54;22.36;100805.00;5112268;28;20115;-77
2023/07/09 07:32:50;;;;;;;6.97;5.20;;;;;;;44.02;21.60;100796.16;5114377;28;20120;-76
2023/07/09 07:35:15;;;;;;;5.32;4.82;;;;;;;44.53;21.86;100794.84;5112744;28;20055;-76
2023/07/09 07:37:41;;;;;;;7.25;4.65;;;;;;;44.97;20.83;100791.03;5129681;28;20541;-76
2023/07/09 07:40:24;;;;;;;5.68;4.70;;;;;;;44.87;20.92;100787.84;5114126;28;20047;-74
2023/07/09 07:42:51;;;;;;;6.63;4.60;;;;;;;45.27;20.51;100781.69;5113696;28;20439;-73
2023/07/09 07:45:17;;;;;;;5.63;4.88;;;;;;;45.64;20.54;100777.63;5114180;28;20020;-75
2023/07/09 07:47:43;;;;;;;6.30;4.25;;;;;;;45.71;19.89;100773.19;5113690;28;20023;-74
2023/07/09 07:50:11;;;;;;;5.95;4.85;;;;;;;45.96;18.96;100762.09;5113700;28;20031;-75
2023/07/09 07:52:37;;;;;;;7.88;4.30;;;;;;;45.85;19.44;100769.53;5113664;28;20107;-74
2023/07/09 07:55:05;;;;;;;5.38;4.88;;;;;;;45.49;18.70;100761.56;5113958;28;20102;-74
2023/07/09 07:57:31;;;;;;;5.30;3.90;;;;;;;45.03;18.37;100769.97;5112902;28;20042;-74
2023/07/09 07:59:57;;;;;;;6.10;3.83;;;;;;;45.40;19.04;100772.03;5113534;28;20043;-74
2023/07/09 08:02:24;;;;;;;6.43;4.03;;;;;;;45.88;18.74;100765.78;5113303;28;20795;-72
2023/07/09 08:04:50;;;;;;;7.75;3.80;;;;;;;46.37;18.74;100763.28;5112309;28;20038;-73
2023/07/09 08:07:18;;;;;;;7.18;4.20;;;;;;;46.67;18.18;100763.50;5112306;28;20384;-72
2023/07/09 08:09:46;;;;;;;4.90;4.07;;;;;;;46.79;16.70;100765.88;5112177;28;20062;-72
2023/07/09 08:12:13;;;;;;;5.60;3.90;;;;;;;46.87;17.73;100769.72;5111591;28;20028;-78
2023/07/09 08:14:40;;;;;;;4.35;3.95;;;;;;;46.89;17.10;100781.09;5112902;28;20472;-76
2023/07/09 08:17:06;;;;;;;5.38;3.88;;;;;;;46.93;16.91;100775.06;5111940;28;20055;-79
2023/07/09 08:19:32;;;;;;;4.07;3.60;;;;;;;46.90;16.21;100774.25;5111961;28;20036;-76
2023/07/09 08:21:58;;;;;;;4.30;3.25;;;;;;;47.29;17.01;100781.31;5112300;28;20028;-77
2023/07/09 08:24:25;;;;;;;4.78;3.83;;;;;;;47.45;16.19;100776.84;5113215;28;20460;-75
2023/07/09 08:26:50;;;;;;;4.22;3.83;;;;;;;47.41;16.16;100776.84;5112210;28;20398;-76
2023/07/09 08:29:16;;;;;;;5.05;3.90;;;;;;;47.57;17.42;100774.63;5116914;28;20036;-74
2023/07/09 08:31:42;;;;;;;6.15;4.30;;;;;;;47.81;16.79;100777.00;5116997;28;20156;-74
2023/07/09 08:34:07;;;;;;;6.28;4.60;;;;;;;47.65;15.98;100776.91;5117134;28;20114;-75
2023/07/09 08:36:36;;;;;;;7.72;4.30;;;;;;;47.59;16.60;100782.97;5115557;28;20429;-75
2023/07/09 08:39:02;;;;;;;6.05;4.97;;;;;;;47.52;16.29;100760.22;5115704;28;20058;-75
2023/07/09 08:41:56;;;;;;;8.20;4.57;;;;;;;47.26;16.90;100782.06;5117198;28;20077;-74
2023/07/09 08:44:35;;;;;;;6.28;4.40;;;;;;;47.06;16.69;100779.69;5116832;28;20019;-75
2023/07/09 08:47:11;;;;;;;6.35;4.72;;;;;;;47.00;15.96;100791.00;5116648;28;20024;-76
2023/07/09 08:50:00;;;;;;;6.80;4.47;;;;;;;46.62;16.60;100776.31;5116727;28;20405;-75
2023/07/09 08:52:35;;;;;;;6.10;4.25;;;;;;;46.21;16.44;100772.94;5115510;28;20085;-74
2023/07/09 08:55:08;;;;;;;4.05;3.67;;;;;;;45.56;16.55;100778.28;5115719;28;20062;-73
2023/07/09 08:57:41;;;;;;;4.97;3.67;;;;;;;45.21;17.64;100774.03;5116428;28;20024;-75
2023/07/09 09:00:29;;;;;;;5.93;4.10;;;;;;;44.99;17.37;100775.97;5106546;27;20119;-75
2023/07/09 09:03:03;;;;;;;3.97;3.43;;;;;;;44.74;17.43;100768.78;5096524;28;20026;-75
2023/07/09 09:05:32;;;;;;;5.32;3.40;;;;;;;44.61;15.85;100770.09;5078872;28;20419;-75
2023/07/09 09:08:45;;;;;;;6.03;3.25;;;;;;;44.46;16.32;100766.06;5091963;28;20033;-75
2023/07/09 09:11:35;;;;;;;7.80;3.75;;;;;;;43.99;16.77;100773.50;5064537;28;20051;-74
2023/07/09 09:14:09;;;;;;;3.92;3.03;;;;;;;44.05;18.25;100757.78;5095805;28;20028;-75
2023/07/09 09:16:41;;;;;;;3.63;3.17;;;;;;;43.97;17.79;100771.22;5111648;28;20071;-75
2023/07/09 09:19:36;;;;;;;4.80;3.28;;;;;;;43.92;16.70;100772.63;5078138;28;20032;-75
2023/07/09 09:22:18;;;;;;;3.67;2.88;;;;;;;43.80;17.23;100765.59;5095140;28;20085;-76
2023/07/09 09:25:10;;;;;;;5.55;3.67;;;;;;;43.70;17.79;100769.16;5094979;28;20036;-75
2023/07/09 09:27:38;;;;;;;5.32;3.60;;;;;;;43.55;18.98;100767.34;5095632;28;20024;-75
2023/07/09 09:30:04;;;;;;;4.00;3.38;;;;;;;43.22;18.20;100765.13;5094454;28;20032;-73
2023/07/09 09:32:54;;;;;;;5.57;3.40;;;;;;;43.11;18.09;100779.94;5094362;28;20384;-76
2023/07/09 09:35:33;;;;;;;3.55;3.25;;;;;;;43.04;17.91;100769.28;5092293;28;20036;-73
2023/07/09 09:38:01;;;;;;;4.30;3.20;;;;;;;42.86;17.92;100774.81;5111357;28;20035;-75
2023/07/09 09:40:28;;;;;;;5.43;3.58;;;;;;;42.60;18.51;100768.19;5093761;28;20044;-75
2023/07/09 09:43:13;;;;;;;5.03;3.60;;;;;;;42.46;19.10;100765.56;5093154;28;20436;-73
2023/07/09 09:45:43;;;;;;;4.80;3.80;;;;;;;42.24;19.18;100765.00;5093285;28;20028;-74
2023/07/09 09:48:16;;;;;;;;;;;;;;;41.78;18.28;100768.25;5075707;28;20400;-74
2023/07/09 09:50:45;;;;;;;6.22;4.07;;;;;;;41.28;18.62;100769.75;5093380;28;19914;-76
2023/07/09 09:53:18;;;;;;;6.38;3.65;;;;;;;40.87;20.57;100770.72;5093103;28;20070;-76
2023/07/09 09:55:44;;;;;;;3.35;3.05;;;;;;;40.53;19.27;100771.09;5092764;28;20035;-74
2023/07/09 09:58:17;;;;;;;6.82;3.28;;;;;;;39.99;19.32;100781.22;5094072;28;20123;-75
2023/07/09 10:00:55;;;;;;;4.75;3.00;;;;;;;39.51;18.61;100780.94;5093761;28;20043;-75
2023/07/09 10:03:38;;;;;;;4.15;3.03;;;;;;;39.14;19.15;100775.00;5075758;28;20115;-75
2023/07/09 10:06:33;;;;;;;7.03;3.15;;;;;;;38.83;19.28;100775.97;5075350;28;20036;-73
2023/07/09 10:09:19;;;;;;;3.95;3.50;;;;;;;38.61;19.61;100775.06;5086391;28;20055;-74
2023/07/09 10:11:51;;;;;;;3.60;3.30;;;;;;;38.34;20.24;100779.91;5092178;28;20059;-75
2023/07/09 10:14:58;;;;;;;3.22;2.88;;;;;;;38.03;19.91;100780.03;5093542;28;20040;-75
2023/07/09 10:17:39;;;;;;;6.63;3.20;;;;;;;37.73;19.38;100780.19;5032565;28;20048;-75
2023/07/09 10:20:21;;;;;;;7.28;3.30;;;;;;;37.29;19.91;100775.13;5032648;28;20060;-75
2023/07/09 10:23:02;;;;;;;5.93;3.30;;;;;;;36.89;20.34;100771.00;5016223;28;20124;-75
2023/07/09 10:25:48;;;;;;;5.53;3.15;;;;;;;36.56;20.93;100774.56;5017025;28;20095;-74
2023/07/09 10:28:43;;;;;;;4.70;3.17;;;;;;;36.28;21.63;100770.94;5037905;28;20039;-76
2023/07/09 10:31:31;;;;;;;3.92;3.60;;;;;;;35.95;21.93;100771.41;5096754;28;20044;-75
2023/07/09 10:34:29;;;;;;;3.67;3.28;;;;;;;35.54;22.43;100777.44;5097361;28;20024;-76
2023/07/09 10:36:55;;;;;;;11.63;3.25;;;;;;;35.18;21.66;100773.22;5095629;28;20036;-75
2023/07/09 10:39:26;;;;;;;6.20;3.28;;;;;;;34.97;22.06;100785.34;5115461;28;20043;-75
2023/07/09 10:41:53;;;;;;;;;;;;;;;34.68;22.91;100780.00;5090939;28;20035;-75
2023/07/09 10:44:35;;;;;;;4.60;3.78;;;;;;;34.40;22.95;100787.25;5096331;28;19911;-74
2023/07/09 10:47:04;;;;;;;4.75;3.63;;;;;;;34.17;22.76;100781.38;5094972;28;20107;-75
2023/07/09 10:49:36;;;;;;;4.03;3.28;;;;;;;33.87;22.29;100781.06;5076384;28;20032;-76
2023/07/09 10:52:11;;;;;;;3.78;3.30;;;;;;;33.55;25.12;100775.31;5076554;28;20028;-75
2023/07/09 10:55:09;;;;;;;6.57;3.15;;;;;;;33.34;23.84;100782.16;5093256;28;20070;-75
2023/07/09 10:57:56;;;;;;;3.97;3.58;;;;;;;33.20;24.36;100778.31;5093123;28;20031;-74
2023/07/09 11:00:26;;;;;;;5.35;3.42;;;;;;;33.00;23.43;100781.47;5093734;28;20035;-74
2023/07/09 11:02:59;;;;;;;5.55;3.38;;;;;;;32.84;24.41;100770.75;5076502;28;20024;-75
2023/07/09 11:05:26;;;;;;;4.35;3.20;;;;;;;32.47;25.65;100741.72;5076226;28;20122;-75
2023/07/09 11:08:06;;;;;;;5.78;3.40;;;;;;;32.46;24.89;100766.03;5094101;28;20097;-76
2023/07/09 11:10:47;;;;;;;3.75;3.45;;;;;;;32.25;24.96;100770.59;5093936;28;20047;-76
2023/07/09 11:13:28;;;;;;;4.90;3.25;;;;;;;32.08;25.36;100767.94;5094033;28;20039;-75
2023/07/09 11:15:56;;;;;;;3.60;3.25;;;;;;;31.92;25.45;100766.03;5106356;28;20466;-75
2023/07/09 11:18:25;;;;;;;5.00;3.38;;;;;;;31.75;25.66;100773.00;5093915;28;20028;-76
2023/07/09 11:21:07;;;;;;;5.70;3.40;;;;;;;31.67;25.82;100773.22;5092555;28;20518;-75
2023/07/09 11:23:49;;;;;;;3.83;3.47;;;;;;;31.59;28.20;100772.63;5093656;28;20465;-75
2023/07/09 11:26:26;;;;;;;5.82;3.17;;;;;;;31.54;25.73;100779.66;5093906;28;20046;-75
2023/07/09 11:28:55;;;;;;;7.63;3.45;;;;;;;31.50;26.26;100778.59;5093656;28;20020;-74
2023/07/09 11:31:35;;;;;;;4.63;3.17;;;;;;;31.37;27.29;100762.97;5092625;28;20122;-74
2023/07/09 11:34:17;;;;;;;4.95;3.67;;;;;;;31.29;26.58;100770.47;5093757;28;20074;-76